Time;durP1;ratioP1;P1;durP2;ratioP2;P2;SDS_P1;SDS_P2;PMS_P1;PMS_P2;Temp;Humidity;BMP_temperature;BMP_pressure;BME280_temperature;BME280_humidity;BME280_pressure;Samples;Min_cycle;Max_cycle;Signal;HPM_P1;HPM_P2
2021/01/18 00:00:19;;;;;;;28.30;18.00;;;0.30;99.90;;;;;;6953250;28;20406;-63
2021/01/18 00:03:40;;;;;;;29.38;19.10;;;0.30;99.90;;;;;;6946859;28;20428;-63
2021/01/18 00:07:05;;;;;;;28.98;18.85;;;0.20;99.90;;;;;;6937627;28;20409;-60
2021/01/18 00:10:26;;;;;;;31.58;19.15;;;0.30;99.90;;;;;;6947674;28;20415;-63
2021/01/18 00:13:49;;;;;;;30.48;19.27;;;0.30;99.90;;;;;;6938314;28;20443;-61
2021/01/18 00:17:10;;;;;;;29.45;18.73;;;0.20;99.90;;;;;;6943817;28;20410;-62
2021/01/18 00:20:31;;;;;;;31.95;19.30;;;0.20;99.90;;;;;;6960939;28;20400;-64
2021/01/18 00:23:51;;;;;;;30.40;19.20;;;0.30;99.90;;;;;;6950782;28;20430;-63
2021/01/18 00:27:12;;;;;;;27.15;18.25;;;0.40;99.90;;;;;;6940716;28;20416;-62
2021/01/18 00:30:33;;;;;;;31.02;19.60;;;0.30;99.90;;;;;;6943637;28;20894;-61
2021/01/18 00:33:54;;;;;;;30.80;19.40;;;0.40;99.90;;;;;;6942055;28;20406;-62
2021/01/18 00:37:15;;;;;;;30.02;18.65;;;0.30;99.90;;;;;;6941575;28;20908;-59
2021/01/18 00:40:35;;;;;;;29.70;18.87;;;0.20;99.90;;;;;;6949922;28;20741;-62
2021/01/18 00:43:56;;;;;;;29.63;18.97;;;0.30;99.90;;;;;;6959193;28;20766;-64
2021/01/18 00:47:17;;;;;;;32.00;20.10;;;0.30;99.90;;;;;;6944519;28;20500;-62
2021/01/18 00:50:39;;;;;;;30.55;19.40;;;0.30;99.90;;;;;;6950629;28;20409;-60
2021/01/18 00:54:00;;;;;;;31.65;19.42;;;0.20;99.90;;;;;;6943534;28;20413;-63
2021/01/18 00:57:31;;;;;;;31.55;19.35;;;0.20;99.90;;;;;;6947219;28;20420;-64
2021/01/18 01:00:52;;;;;;;30.75;19.52;;;0.30;99.90;;;;;;6950506;28;20397;-60
2021/01/18 01:04:14;;;;;;;31.23;19.13;;;0.30;99.90;;;;;;6965799;28;20399;-62
2021/01/18 01:07:40;;;;;;;33.25;20.13;;;0.30;99.90;;;;;;6950013;28;20930;-63
2021/01/18 01:11:01;;;;;;;32.25;19.80;;;0.30;99.90;;;;;;6948289;28;20454;-62
2021/01/18 01:14:21;;;;;;;31.15;20.17;;;0.30;99.90;;;;;;6949132;28;20887;-61
2021/01/18 01:17:44;;;;;;;32.40;19.63;;;0.10;99.90;;;;;;6943930;28;20417;-62
2021/01/18 01:21:05;;;;;;;34.17;21.17;;;0.10;99.90;;;;;;6975755;28;20659;-62
2021/01/18 01:24:25;;;;;;;34.63;21.00;;;0.10;99.90;;;;;;6941402;28;20741;-64
2021/01/18 01:27:46;;;;;;;34.37;21.00;;;0.10;99.90;;;;;;6946928;28;20404;-64
2021/01/18 01:31:07;;;;;;;34.60;21.60;;;0.00;99.90;;;;;;6939088;28;20897;-62
2021/01/18 01:34:28;;;;;;;37.55;22.05;;;0.00;99.90;;;;;;6938905;28;20473;-62
2021/01/18 01:37:49;;;;;;;37.30;22.50;;;-0.10;99.90;;;;;;6952222;28;20476;-64
2021/01/18 01:41:10;;;;;;;36.55;21.85;;;-0.10;99.90;;;;;;6949618;28;20398;-63
2021/01/18 01:44:31;;;;;;;34.78;22.33;;;0.00;99.90;;;;;;6942767;28;20456;-62
2021/01/18 01:47:56;;;;;;;35.97;22.42;;;0.00;99.90;;;;;;6964505;28;20779;-63
2021/01/18 01:51:18;;;;;;;34.25;22.48;;;0.10;99.90;;;;;;6950102;28;20395;-61
2021/01/18 01:54:41;;;;;;;35.08;21.90;;;0.20;99.90;;;;;;6936785;28;20423;-61
2021/01/18 01:58:06;;;;;;;34.87;22.67;;;0.10;99.90;;;;;;6939675;28;20414;-61
2021/01/18 02:01:27;;;;;;;37.35;23.42;;;0.10;99.90;;;;;;6950926;28;20479;-60
2021/01/18 02:04:48;;;;;;;37.95;22.50;;;0.10;99.90;;;;;;6938406;28;20555;-64
2021/01/18 02:08:10;;;;;;;37.93;22.30;;;0.00;99.90;;;;;;6941917;28;20399;-61
2021/01/18 02:11:31;;;;;;;38.00;22.70;;;0.00;99.90;;;;;;6935313;28;20453;-61
2021/01/18 02:15:13;;;;;;;35.47;22.43;;;0.20;99.90;;;;;;6943420;28;20417;-62
2021/01/18 02:18:53;;;;;;;37.55;22.85;;;0.10;99.90;;;;;;6948870;28;20419;-61
2021/01/18 02:22:46;;;;;;;37.08;22.75;;;0.20;99.90;;;;;;6951099;28;20424;-63
2021/01/18 02:26:19;;;;;;;35.38;23.05;;;0.10;99.90;;;;;;6952308;28;20684;-62
2021/01/18 02:30:10;;;;;;;37.03;22.87;;;0.20;99.90;;;;;;6941084;28;20409;-60
2021/01/18 02:33:53;;;;;;;35.97;22.67;;;0.10;99.90;;;;;;6975729;28;20909;-64
2021/01/18 02:37:40;;;;;;;38.97;23.65;;;0.10;99.90;;;;;;6942247;28;20419;-61
2021/01/18 02:41:01;;;;;;;38.78;24.02;;;0.20;99.90;;;;;;6939158;28;20399;-64
2021/01/18 02:44:25;;;;;;;40.65;24.45;;;0.10;99.90;;;;;;6950949;28;20402;-63
2021/01/18 02:47:46;;;;;;;39.78;24.05;;;0.10;99.90;;;;;;6952530;28;20903;-62
2021/01/18 02:51:10;;;;;;;38.13;22.95;;;0.20;99.90;;;;;;6944179;28;20407;-62
2021/01/18 02:54:31;;;;;;;38.88;24.27;;;0.10;99.90;;;;;;6951802;28;20426;-62
2021/01/18 02:57:53;;;;;;;40.15;24.25;;;0.00;99.90;;;;;;6934695;28;20409;-64
2021/01/18 03:01:40;;;;;;;41.53;23.92;;;0.00;99.90;;;;;;6938551;28;20757;-64
2021/01/18 03:05:00;;;;;;;43.53;23.92;;;0.10;99.90;;;;;;6946210;28;20468;-64
2021/01/18 03:08:28;;;;;;;42.05;24.50;;;0.20;99.90;;;;;;6960988;28;20461;-64
2021/01/18 03:11:51;;;;;;;41.07;24.37;;;0.20;99.90;;;;;;6959721;28;20405;-63
2021/01/18 03:15:15;;;;;;;40.40;24.40;;;0.30;99.90;;;;;;6961912;28;20492;-64
2021/01/18 03:18:38;;;;;;;47.38;28.10;;;0.20;99.90;;;;;;6967662;28;20403;-60
2021/01/18 03:21:59;;;;;;;45.22;25.55;;;0.10;99.90;;;;;;6952618;28;20487;-64
2021/01/18 03:25:19;;;;;;;43.75;25.88;;;0.10;99.90;;;;;;6948956;28;20774;-63
2021/01/18 03:28:41;;;;;;;44.40;25.00;;;0.20;99.90;;;;;;6951031;28;20967;-64
2021/01/18 03:32:02;;;;;;;41.08;24.60;;;0.20;99.90;;;;;;6942788;28;20399;-64
2021/01/18 03:35:23;;;;;;;45.15;25.13;;;0.20;99.90;;;;;;6958964;28;20432;-63
2021/01/18 03:38:44;;;;;;;46.70;25.33;;;0.20;99.90;;;;;;6955405;28;20406;-62
2021/01/18 03:42:05;;;;;;;43.20;25.10;;;0.30;99.90;;;;;;6938535;28;20409;-61
2021/01/18 03:45:29;;;;;;;45.03;25.25;;;0.20;99.90;;;;;;6947250;28;21113;-62
2021/01/18 03:48:51;;;;;;;46.53;25.92;;;0.20;99.90;;;;;;6972604;28;20894;-62
2021/01/18 03:52:12;;;;;;;49.88;26.27;;;0.30;99.90;;;;;;6947269;28;20417;-63
2021/01/18 03:55:33;;;;;;;49.83;25.77;;;0.30;99.90;;;;;;6941881;28;20411;-64
2021/01/18 03:58:54;;;;;;;49.10;25.30;;;0.20;99.90;;;;;;6967150;28;20409;-64
2021/01/18 04:02:15;;;;;;;45.53;24.70;;;0.30;99.90;;;;;;6942377;28;20793;-60
2021/01/18 04:05:36;;;;;;;45.50;24.60;;;0.40;99.90;;;;;;6942229;28;20430;-64
2021/01/18 04:08:56;;;;;;;46.47;24.97;;;0.20;99.90;;;;;;6961488;28;20420;-61
2021/01/18 04:12:17;;;;;;;47.13;26.00;;;0.30;99.90;;;;;;6940673;28;20410;-62
2021/01/18 04:15:38;;;;;;;51.60;25.73;;;0.40;99.90;;;;;;6936621;28;20508;-61
2021/01/18 04:18:59;;;;;;;46.65;25.60;;;0.40;99.90;;;;;;6933701;28;20816;-63
2021/01/18 04:22:20;;;;;;;52.33;25.90;;;0.40;99.90;;;;;;6931800;28;20452;-61
2021/01/18 04:25:40;;;;;;;53.17;26.35;;;0.50;99.90;;;;;;6934784;28;20406;-63
2021/01/18 04:29:01;;;;;;;54.70;27.35;;;0.50;99.90;;;;;;6956629;28;20468;-62
2021/01/18 04:32:22;;;;;;;58.50;25.45;;;0.60;99.90;;;;;;6926302;28;20399;-64
2021/01/18 04:35:43;;;;;;;55.90;26.43;;;0.60;99.90;;;;;;6928379;28;20415;-63
2021/01/18 04:39:08;;;;;;;53.57;26.50;;;0.60;99.90;;;;;;6947729;28;20426;-62
2021/01/18 04:42:30;;;;;;;53.28;25.98;;;0.30;99.90;;;;;;6936533;28;20439;-63
2021/01/18 04:45:51;;;;;;;52.45;26.33;;;0.50;99.90;;;;;;6943500;28;20407;-64
2021/01/18 04:49:14;;;;;;;57.03;26.67;;;0.50;99.90;;;;;;6950545;28;20407;-64
2021/01/18 04:52:44;;;;;;;55.78;26.50;;;0.60;99.90;;;;;;6936793;28;20406;-63
2021/01/18 04:56:20;;;;;;;55.42;26.25;;;0.50;99.90;;;;;;6935509;28;20476;-63
2021/01/18 04:59:47;;;;;;;58.67;27.42;;;0.50;99.90;;;;;;6935419;28;20414;-60
2021/01/18 05:03:09;;;;;;;51.15;25.58;;;0.50;99.90;;;;;;6942621;28;20410;-62
2021/01/18 05:06:53;;;;;;;52.70;27.20;;;0.40;99.90;;;;;;6947298;28;20399;-60
2021/01/18 05:10:23;;;;;;;52.57;27.03;;;0.60;99.90;;;;;;6931222;28;20479;-62
2021/01/18 05:13:45;;;;;;;55.10;26.43;;;0.70;99.90;;;;;;6953805;28;20425;-63
2021/01/18 05:17:09;;;;;;;56.30;26.35;;;0.80;99.90;;;;;;6951492;28;20410;-63
2021/01/18 05:20:30;;;;;;;51.27;25.93;;;0.90;99.90;;;;;;6951182;28;20404;-62
2021/01/18 05:23:51;;;;;;;55.03;26.63;;;0.90;99.90;;;;;;6925485;28;20461;-64
2021/01/18 05:27:12;;;;;;;60.10;26.60;;;1.00;99.90;;;;;;6938635;28;20403;-63
2021/01/18 05:30:41;;;;;;;51.70;25.60;;;1.00;99.90;;;;;;6928739;28;20450;-64
2021/01/18 05:34:11;;;;;;;51.28;25.63;;;1.00;99.90;;;;;;6920879;28;20395;-64
2021/01/18 05:37:32;;;;;;;48.47;25.10;;;1.00;99.90;;;;;;6922478;28;20493;-63
2021/01/18 05:40:53;;;;;;;52.95;26.48;;;0.90;99.90;;;;;;6934487;28;20411;-64
2021/01/18 05:44:14;;;;;;;57.92;26.08;;;1.20;99.90;;;;;;6920332;28;20409;-64
2021/01/18 05:47:42;;;;;;;55.15;25.42;;;1.10;99.90;;;;;;6920688;28;20423;-64
2021/01/18 05:51:04;;;;;;;55.10;25.35;;;1.00;99.90;;;;;;6934681;28;20411;-64
2021/01/18 05:54:26;;;;;;;55.40;25.05;;;1.10;99.90;;;;;;6932094;28;20421;-63
2021/01/18 05:57:50;;;;;;;49.90;23.77;;;1.10;99.90;;;;;;6916680;28;20411;-63
2021/01/18 06:01:11;;;;;;;48.20;22.43;;;1.10;99.90;;;;;;6939424;28;20387;-64
2021/01/18 06:04:32;;;;;;;48.23;23.20;;;1.00;99.90;;;;;;6920032;28;20451;-62
2021/01/18 06:07:53;;;;;;;48.05;22.70;;;1.00;99.90;;;;;;6919509;28;20410;-63
2021/01/18 06:11:23;;;;;;;46.47;22.55;;;1.00;99.90;;;;;;6938878;28;20396;-63
2021/01/18 06:15:05;;;;;;;47.47;22.85;;;1.00;99.90;;;;;;6925731;28;20501;-63
2021/01/18 06:18:31;;;;;;;44.25;22.08;;;1.00;99.90;;;;;;6921429;28;20741;-62
2021/01/18 06:21:52;;;;;;;43.60;21.52;;;1.10;99.90;;;;;;6925117;28;20393;-62
2021/01/18 06:25:14;;;;;;;46.28;21.27;;;1.00;99.90;;;;;;6928759;28;20403;-61
2021/01/18 06:28:36;;;;;;;45.40;20.50;;;1.20;99.90;;;;;;6928074;28;20469;-61
2021/01/18 06:31:57;;;;;;;51.67;21.33;;;1.20;99.90;;;;;;6944853;28;20405;-63
2021/01/18 06:35:23;;;;;;;42.88;20.35;;;1.30;99.90;;;;;;6925659;28;20797;-63
2021/01/18 06:38:57;;;;;;;39.03;19.23;;;1.20;99.90;;;;;;6941778;28;20716;-62
2021/01/18 06:42:21;;;;;;;42.45;20.13;;;1.20;99.90;;;;;;6919336;28;21135;-63
2021/01/18 06:45:42;;;;;;;40.53;19.13;;;1.30;99.90;;;;;;6943102;28;20404;-63
2021/01/18 06:49:05;;;;;;;43.33;19.23;;;1.40;99.90;;;;;;6929105;28;20498;-63
2021/01/18 06:52:31;;;;;;;41.25;19.58;;;1.30;99.90;;;;;;6951691;28;20405;-63
2021/01/18 06:56:29;;;;;;;40.55;19.85;;;1.30;99.90;;;;;;6934837;28;20403;-63
2021/01/18 07:00:01;;;;;;;38.55;18.40;;;1.40;99.90;;;;;;6927586;28;20397;-63
2021/01/18 07:03:40;;;;;;;41.67;21.30;;;1.50;99.90;;;;;;6933114;28;20469;-62
2021/01/18 07:07:07;;;;;;;34.93;18.10;;;1.40;99.90;;;;;;6950024;28;20718;-63
2021/01/18 07:10:31;;;;;;;38.08;18.65;;;1.50;99.90;;;;;;6931096;28;20409;-63
2021/01/18 07:13:52;;;;;;;36.80;17.97;;;1.60;99.90;;;;;;6939877;28;20494;-62
2021/01/18 07:17:14;;;;;;;36.28;18.45;;;1.80;99.90;;;;;;6927183;28;20421;-64
2021/01/18 07:20:46;;;;;;;36.13;17.60;;;1.90;99.90;;;;;;6949283;28;20410;-64
2021/01/18 07:24:12;;;;;;;37.42;16.98;;;1.70;99.90;;;;;;6943167;28;20935;-64
2021/01/18 07:27:41;;;;;;;36.10;17.05;;;1.60;99.90;;;;;;6943179;28;20447;-64
2021/01/18 07:31:02;;;;;;;41.28;16.95;;;1.70;99.90;;;;;;6921821;28;20408;-63
2021/01/18 07:34:25;;;;;;;38.70;17.00;;;1.70;99.90;;;;;;6918340;28;20531;-63
2021/01/18 07:37:46;;;;;;;38.30;17.10;;;1.60;99.90;;;;;;6918642;28;20411;-64
2021/01/18 07:41:07;;;;;;;40.13;16.53;;;1.60;99.90;;;;;;6928176;28;20399;-63
2021/01/18 07:44:35;;;;;;;41.60;17.80;;;1.50;99.90;;;;;;6943055;28;20545;-63
2021/01/18 07:47:56;;;;;;;36.78;16.45;;;1.50;99.90;;;;;;6925404;28;20525;-64
2021/01/18 07:51:25;;;;;;;37.05;16.73;;;1.60;99.90;;;;;;6958325;28;20414;-64
2021/01/18 07:54:47;;;;;;;38.80;16.55;;;1.80;99.90;;;;;;6944572;28;21041;-63
2021/01/18 07:58:16;;;;;;;35.53;17.10;;;1.80;99.90;;;;;;6940228;28;20755;-64
2021/01/18 08:01:37;;;;;;;39.88;16.40;;;1.80;99.90;;;;;;6954174;28;20410;-63
2021/01/18 08:04:58;;;;;;;39.47;17.30;;;1.90;99.90;;;;;;6932524;28;20401;-63
2021/01/18 08:08:26;;;;;;;36.60;15.90;;;1.90;99.90;;;;;;6942984;28;20559;-63
2021/01/18 08:11:47;;;;;;;37.38;16.38;;;2.00;99.90;;;;;;6942512;28;20405;-63
2021/01/18 08:15:09;;;;;;;38.72;16.77;;;1.90;99.90;;;;;;6952501;28;20748;-63
2021/01/18 08:18:30;;;;;;;38.45;16.45;;;2.00;99.90;;;;;;6946245;28;20419;-63
2021/01/18 08:22:04;;;;;;;42.38;16.55;;;2.00;99.90;;;;;;6936795;28;20881;-64
2021/01/18 08:25:30;;;;;;;41.13;16.25;;;1.90;99.90;;;;;;6918942;28;20429;-63
2021/01/18 08:28:51;;;;;;;40.33;16.10;;;2.00;99.90;;;;;;6948366;28;20806;-63
2021/01/18 08:32:24;;;;;;;38.63;15.63;;;2.00;99.90;;;;;;6924370;28;20895;-64
2021/01/18 08:35:50;;;;;;;39.55;16.80;;;2.00;99.90;;;;;;6965731;28;20470;-64
2021/01/18 08:39:11;;;;;;;39.42;15.55;;;2.10;99.90;;;;;;6939797;28;20391;-63
2021/01/18 08:42:38;;;;;;;37.10;15.20;;;2.20;99.90;;;;;;6948707;28;20407;-64
2021/01/18 08:45:59;;;;;;;30.08;14.43;;;2.30;99.90;;;;;;6932758;28;20479;-64
2021/01/18 08:49:33;;;;;;;32.05;14.80;;;2.30;99.90;;;;;;6948278;28;20411;-64
2021/01/18 08:52:53;;;;;;;28.38;13.75;;;2.40;99.90;;;;;;6961461;28;20445;-63
2021/01/18 08:56:37;;;;;;;25.05;12.82;;;2.50;99.90;;;;;;6948672;28;20854;-64
2021/01/18 09:00:05;;;;;;;25.45;11.95;;;2.50;99.90;;;;;;6960945;28;20441;-63
2021/01/18 09:03:26;;;;;;;26.70;12.30;;;2.60;99.90;;;;;;6930635;28;20891;-63
2021/01/18 09:06:47;;;;;;;25.73;12.23;;;2.70;99.90;;;;;;6945194;28;20880;-62
2021/01/18 09:10:16;;;;;;;29.60;12.63;;;2.80;99.90;;;;;;6909006;28;20430;-63
2021/01/18 09:13:39;;;;;;;27.63;12.90;;;2.80;99.90;;;;;;6943100;28;20406;-63
2021/01/18 09:17:07;;;;;;;26.67;12.63;;;2.80;99.90;;;;;;6950599;28;20415;-63
2021/01/18 09:20:28;;;;;;;26.25;12.02;;;2.80;99.90;;;;;;6931041;28;20397;-64
2021/01/18 09:23:50;;;;;;;29.52;13.10;;;2.70;99.90;;;;;;6926709;28;20427;-64
2021/01/18 09:27:11;;;;;;;26.70;13.27;;;2.80;99.90;;;;;;6935004;28;20908;-62
2021/01/18 09:30:32;;;;;;;29.83;13.20;;;2.90;99.90;;;;;;6947011;28;20407;-60
2021/01/18 09:33:53;;;;;;;30.15;13.80;;;2.90;99.90;;;;;;6939286;28;20416;-61
2021/01/18 09:37:14;;;;;;;34.20;14.33;;;2.90;99.90;;;;;;6934940;28;20412;-59
2021/01/18 09:40:37;;;;;;;31.60;13.97;;;3.00;99.90;;;;;;6947065;28;20488;-59
2021/01/18 09:44:04;;;;;;;31.27;13.52;;;2.90;99.90;;;;;;6940372;28;20926;-61
2021/01/18 09:47:27;;;;;;;31.77;14.70;;;3.00;99.90;;;;;;6934497;28;20424;-63
2021/01/18 09:50:48;;;;;;;36.00;15.32;;;2.90;99.90;;;;;;6942498;28;20414;-62
2021/01/18 09:54:11;;;;;;;35.90;16.20;;;3.10;99.90;;;;;;6935881;28;20404;-61
2021/01/18 09:57:36;;;;;;;38.10;15.27;;;3.20;99.90;;;;;;6944351;28;20420;-61
2021/01/18 10:00:59;;;;;;;32.45;14.93;;;3.10;99.90;;;;;;6934690;28;20399;-60
2021/01/18 10:04:22;;;;;;;37.67;15.15;;;3.10;99.90;;;;;;6956751;28;20418;-62
2021/01/18 10:07:48;;;;;;;42.25;14.98;;;3.20;99.90;;;;;;6933421;28;20745;-61
2021/01/18 10:11:09;;;;;;;37.08;15.73;;;3.20;99.90;;;;;;6931787;28;20403;-62
2021/01/18 10:14:30;;;;;;;35.20;15.07;;;3.30;99.90;;;;;;6932746;28;20391;-60
2021/01/18 10:17:55;;;;;;;39.75;15.50;;;3.40;99.90;;;;;;6936493;28;20412;-62
2021/01/18 10:21:18;;;;;;;34.08;14.15;;;3.40;99.90;;;;;;6935489;28;20888;-59
2021/01/18 10:24:39;;;;;;;33.95;14.68;;;3.30;99.90;;;;;;6949379;28;20405;-60
2021/01/18 10:28:00;;;;;;;32.45;13.88;;;3.50;99.90;;;;;;6940108;28;20409;-62
2021/01/18 10:31:25;;;;;;;33.58;14.07;;;3.50;99.90;;;;;;6929679;28;20482;-61
2021/01/18 10:34:45;;;;;;;26.80;12.65;;;3.60;99.90;;;;;;6943293;28;20472;-61
2021/01/18 10:38:14;;;;;;;30.93;12.60;;;3.50;99.90;;;;;;6926297;28;20410;-63
2021/01/18 10:41:36;;;;;;;28.15;13.20;;;3.60;99.90;;;;;;6938710;28;20912;-63
2021/01/18 10:44:57;;;;;;;27.23;12.20;;;3.60;99.90;;;;;;6935403;28;20403;-64
2021/01/18 10:48:29;;;;;;;23.77;12.10;;;3.60;99.90;;;;;;6943352;28;20397;-64
2021/01/18 10:51:59;;;;;;;27.73;12.47;;;3.70;99.90;;;;;;6933523;28;20401;-64
2021/01/18 10:55:23;;;;;;;28.47;12.60;;;3.70;99.90;;;;;;6929578;28;20417;-61
2021/01/18 10:58:54;;;;;;;24.37;10.90;;;3.70;99.90;;;;;;6921805;28;20470;-62
2021/01/18 11:02:15;;;;;;;19.40;9.73;;;3.80;99.90;;;;;;6922707;28;20475;-62
2021/01/18 11:05:39;;;;;;;21.40;10.32;;;3.70;99.90;;;;;;6940894;28;20400;-64
2021/01/18 11:08:59;;;;;;;22.85;10.30;;;3.80;99.90;;;;;;6926290;28;20959;-62
2021/01/18 11:12:32;;;;;;;18.43;9.50;;;3.70;99.90;;;;;;6938412;28;20397;-63
2021/01/18 11:15:53;;;;;;;17.77;9.35;;;3.80;99.90;;;;;;6955524;28;21033;-64
2021/01/18 11:19:13;;;;;;;19.17;9.40;;;3.70;99.90;;;;;;6930078;28;20401;-62
2021/01/18 11:22:35;;;;;;;22.05;9.50;;;3.80;99.90;;;;;;6946919;28;20448;-64
2021/01/18 11:25:55;;;;;;;16.27;9.60;;;3.80;99.90;;;;;;6966311;28;20409;-63
2021/01/18 11:29:18;;;;;;;18.60;9.40;;;3.70;99.90;;;;;;6955605;28;20403;-63
2021/01/18 11:32:41;;;;;;;17.25;9.80;;;3.70;99.90;;;;;;6947013;28;20439;-62
2021/01/18 11:36:02;;;;;;;15.23;8.55;;;3.70;99.90;;;;;;6958736;28;20440;-62
2021/01/18 11:39:22;;;;;;;17.33;8.80;;;3.60;99.90;;;;;;6966556;28;20423;-64
2021/01/18 11:42:43;;;;;;;14.63;8.90;;;3.70;99.90;;;;;;6964580;28;20424;-62
2021/01/18 11:46:04;;;;;;;17.08;8.95;;;3.70;99.90;;;;;;6924960;28;20747;-63
2021/01/18 11:49:25;;;;;;;15.80;9.23;;;3.70;99.90;;;;;;6953860;28;20438;-62
2021/01/18 11:52:48;;;;;;;17.67;9.65;;;3.70;99.90;;;;;;6953609;28;20831;-63
2021/01/18 11:56:09;;;;;;;16.95;9.68;;;3.60;99.90;;;;;;6946132;28;20417;-62
2021/01/18 11:59:31;;;;;;;17.60;10.00;;;3.80;99.90;;;;;;6943289;28;20402;-62
2021/01/18 12:02:57;;;;;;;18.00;9.90;;;3.80;99.90;;;;;;6946520;28;20400;-62
2021/01/18 12:06:17;;;;;;;17.08;10.23;;;3.70;99.90;;;;;;6935550;28;20494;-60
2021/01/18 12:09:38;;;;;;;19.85;10.65;;;3.70;99.90;;;;;;6924341;28;20426;-62
2021/01/18 12:12:59;;;;;;;23.95;15.00;;;3.70;99.90;;;;;;6960379;28;20399;-63
2021/01/18 12:16:25;;;;;;;20.60;12.27;;;3.80;99.90;;;;;;6958836;28;20454;-62
2021/01/18 12:19:47;;;;;;;21.95;12.18;;;3.80;99.90;;;;;;6934724;28;20811;-62
2021/01/18 12:23:08;;;;;;;18.88;11.00;;;3.80;99.90;;;;;;6960234;28;20403;-61
2021/01/18 12:26:29;;;;;;;22.73;12.40;;;3.70;99.90;;;;;;6928457;28;20411;-64
2021/01/18 12:29:50;;;;;;;27.07;17.30;;;3.70;99.90;;;;;;6942586;28;20883;-63
2021/01/18 12:33:11;;;;;;;23.93;14.03;;;3.90;99.90;;;;;;6946262;28;20940;-64
2021/01/18 12:36:32;;;;;;;26.85;15.45;;;4.00;99.90;;;;;;6935305;28;21230;-64
2021/01/18 12:39:53;;;;;;;24.33;13.25;;;3.90;99.90;;;;;;6934955;28;20411;-62
2021/01/18 12:43:17;;;;;;;26.70;13.70;;;4.00;99.90;;;;;;6972446;28;20765;-63
2021/01/18 12:46:38;;;;;;;27.55;13.70;;;4.00;99.90;;;;;;6965388;28;20430;-63
2021/01/18 12:49:59;;;;;;;26.87;13.90;;;4.10;99.90;;;;;;6948334;28;20411;-64
2021/01/18 12:56:59;;;;;;;30.15;15.48;;;4.20;99.90;;;;;;6960695;28;20471;-64
2021/01/18 13:00:20;;;;;;;26.77;15.90;;;4.30;99.90;;;;;;6932487;28;20399;-64
2021/01/18 13:03:44;;;;;;;28.02;15.00;;;4.30;99.90;;;;;;6927392;28;20446;-64
2021/01/18 13:07:05;;;;;;;29.92;15.82;;;4.50;99.90;;;;;;6945818;28;20539;-63
2021/01/18 13:10:28;;;;;;;30.13;16.48;;;4.60;99.90;;;;;;6953999;28;20407;-64
2021/01/18 13:13:50;;;;;;;34.72;16.08;;;4.60;99.90;;;;;;6934248;28;20902;-64
2021/01/18 13:17:11;;;;;;;25.90;15.50;;;4.50;99.90;;;;;;6910334;28;20946;-63
2021/01/18 13:20:32;;;;;;;28.80;16.20;;;4.50;99.90;;;;;;6925997;28;20421;-64
2021/01/18 13:23:53;;;;;;;27.45;15.60;;;4.40;99.90;;;;;;6939569;28;20498;-63
2021/01/18 13:27:14;;;;;;;30.40;16.75;;;4.50;99.90;;;;;;6946298;28;20395;-61
2021/01/18 13:30:35;;;;;;;29.97;15.60;;;4.50;99.90;;;;;;6962020;28;20407;-61
2021/01/18 13:33:56;;;;;;;31.60;16.40;;;4.60;99.90;;;;;;6952722;28;20408;-62
2021/01/18 13:37:17;;;;;;;30.50;15.70;;;4.60;99.90;;;;;;6942413;28;20410;-62
2021/01/18 13:40:39;;;;;;;27.70;15.60;;;4.60;99.90;;;;;;6930748;28;20510;-63
2021/01/18 13:43:59;;;;;;;27.77;15.93;;;4.60;99.90;;;;;;6933881;28;20484;-63
2021/01/18 13:47:20;;;;;;;28.67;15.98;;;4.60;99.90;;;;;;6962750;28;20391;-62
2021/01/18 13:50:41;;;;;;;27.02;15.13;;;4.60;99.90;;;;;;6946101;28;20413;-64
2021/01/18 13:54:02;;;;;;;29.45;15.20;;;4.60;99.90;;;;;;6953153;28;21235;-64
2021/01/18 13:57:23;;;;;;;27.05;16.17;;;4.60;99.90;;;;;;6930030;28;20522;-64
2021/01/18 14:00:44;;;;;;;27.30;15.10;;;4.70;99.90;;;;;;6947026;28;20394;-60
2021/01/18 14:04:05;;;;;;;29.77;17.07;;;4.70;99.90;;;;;;6945071;28;20400;-63
2021/01/18 14:07:26;;;;;;;28.25;16.00;;;4.70;99.90;;;;;;6936169;28;20401;-62
2021/01/18 14:10:51;;;;;;;27.95;16.00;;;4.70;99.90;;;;;;6938781;28;20459;-60
2021/01/18 14:14:12;;;;;;;28.98;15.25;;;4.80;99.90;;;;;;6939703;28;20405;-63
2021/01/18 14:17:33;;;;;;;27.53;15.13;;;4.80;99.90;;;;;;6947950;28;20429;-61
2021/01/18 14:20:54;;;;;;;25.43;14.60;;;4.80;99.90;;;;;;6938009;28;20434;-60
2021/01/18 14:24:15;;;;;;;24.87;14.10;;;4.80;99.90;;;;;;6957183;28;20909;-59
2021/01/18 14:27:36;;;;;;;25.20;14.10;;;4.70;99.90;;;;;;6953638;28;20738;-60
2021/01/18 14:30:57;;;;;;;24.98;14.63;;;4.70;99.90;;;;;;6961281;28;20401;-62
2021/01/18 14:34:21;;;;;;;23.77;14.02;;;4.70;99.90;;;;;;6938732;28;20472;-61
2021/01/18 14:37:43;;;;;;;24.70;13.70;;;4.80;99.90;;;;;;6923854;28;20435;-64
2021/01/18 14:41:04;;;;;;;26.77;14.50;;;4.80;99.90;;;;;;6950054;28;20478;-62
2021/01/18 14:44:25;;;;;;;23.60;12.93;;;4.80;99.90;;;;;;6927311;28;20419;-63
2021/01/18 14:47:47;;;;;;;23.00;13.35;;;4.70;99.90;;;;;;6938696;28;20499;-60
2021/01/18 14:51:13;;;;;;;22.23;13.68;;;4.70;99.90;;;;;;6960262;28;20886;-63
2021/01/18 14:54:36;;;;;;;21.63;13.50;;;4.80;99.90;;;;;;6952992;28;20899;-59
2021/01/18 14:57:58;;;;;;;22.05;12.68;;;4.80;99.90;;;;;;6939864;28;20856;-64
2021/01/18 15:01:21;;;;;;;20.75;12.15;;;4.80;99.90;;;;;;6961429;28;20482;-64
2021/01/18 15:04:42;;;;;;;20.87;11.70;;;4.70;99.90;;;;;;6939578;28;20403;-63
2021/01/18 15:08:04;;;;;;;20.73;11.60;;;4.70;99.90;;;;;;6940455;28;20454;-64
2021/01/18 15:11:26;;;;;;;20.38;11.70;;;4.80;99.90;;;;;;6964971;28;20749;-62
2021/01/18 15:14:47;;;;;;;17.65;10.80;;;4.80;99.90;;;;;;6959841;28;20415;-62
2021/01/18 15:18:08;;;;;;;17.00;10.70;;;4.80;99.90;;;;;;6964917;28;20423;-60
2021/01/18 15:21:32;;;;;;;20.08;11.30;;;4.70;99.90;;;;;;6932228;28;20406;-61
2021/01/18 15:24:53;;;;;;;18.80;11.50;;;4.70;99.90;;;;;;6957051;28;20407;-62
2021/01/18 15:28:14;;;;;;;16.98;10.05;;;4.70;99.90;;;;;;6938804;28;20415;-59
2021/01/18 15:31:34;;;;;;;18.73;10.97;;;4.70;99.90;;;;;;6945073;28;20409;-63
2021/01/18 15:34:55;;;;;;;16.67;10.00;;;4.70;99.90;;;;;;6928380;28;20403;-62
2021/01/18 15:38:16;;;;;;;18.67;10.07;;;4.60;99.90;;;;;;6934586;28;20737;-64
2021/01/18 15:41:37;;;;;;;19.02;11.30;;;4.50;99.90;;;;;;6943751;28;20488;-61
2021/01/18 15:44:58;;;;;;;17.65;10.25;;;4.50;99.90;;;;;;6959464;28;20408;-63
2021/01/18 15:48:19;;;;;;;18.40;10.95;;;4.50;99.90;;;;;;6945437;28;20415;-63
2021/01/18 15:51:41;;;;;;;16.83;9.98;;;4.50;99.90;;;;;;6963952;28;20439;-62
2021/01/18 15:55:02;;;;;;;16.10;9.95;;;4.50;99.90;;;;;;6938979;28;20411;-64
2021/01/18 15:58:23;;;;;;;16.88;9.70;;;4.60;99.90;;;;;;6947194;28;20941;-64
2021/01/18 16:01:44;;;;;;;14.75;9.20;;;4.50;99.90;;;;;;6959945;28;20410;-63
2021/01/18 16:05:11;;;;;;;16.60;10.20;;;4.40;99.90;;;;;;6948289;28;20872;-64
2021/01/18 16:08:32;;;;;;;15.43;8.70;;;4.50;99.90;;;;;;6935850;28;20499;-63
2021/01/18 16:11:53;;;;;;;13.80;9.00;;;4.50;99.90;;;;;;6938334;28;20786;-62
2021/01/18 16:15:14;;;;;;;12.73;8.15;;;4.50;99.90;;;;;;6919525;28;20424;-64
2021/01/18 16:18:35;;;;;;;12.50;8.00;;;4.30;99.90;;;;;;6936639;28;20731;-64
2021/01/18 16:21:57;;;;;;;13.40;8.40;;;4.30;99.90;;;;;;6936656;28;20410;-64
2021/01/18 16:25:19;;;;;;;12.07;7.43;;;4.30;99.90;;;;;;6975001;28;20416;-64
2021/01/18 16:28:39;;;;;;;13.10;8.20;;;4.30;99.90;;;;;;6948138;28;20406;-64
2021/01/18 16:32:00;;;;;;;13.30;8.50;;;4.40;99.90;;;;;;6910245;28;20415;-64
2021/01/18 16:35:21;;;;;;;12.50;8.00;;;4.40;99.90;;;;;;6934613;28;20953;-64
2021/01/18 16:38:42;;;;;;;13.15;8.68;;;4.40;99.90;;;;;;6935815;28;20422;-63
2021/01/18 16:42:04;;;;;;;13.93;9.03;;;4.40;99.90;;;;;;6955846;28;20483;-63
2021/01/18 16:45:27;;;;;;;14.43;8.98;;;4.40;99.90;;;;;;6934877;28;20403;-64
2021/01/18 16:48:49;;;;;;;13.65;9.20;;;4.40;99.90;;;;;;6951979;28;20971;-64
2021/01/18 16:52:10;;;;;;;16.10;10.07;;;4.40;99.90;;;;;;6947458;28;20481;-63
2021/01/18 16:55:31;;;;;;;15.65;10.10;;;4.40;99.90;;;;;;6942451;28;20401;-64
2021/01/18 16:58:52;;;;;;;16.10;10.20;;;4.40;99.90;;;;;;6966451;28;20871;-63
2021/01/18 17:02:13;;;;;;;16.93;10.40;;;4.50;99.90;;;;;;6938552;28;20498;-63
2021/01/18 17:05:34;;;;;;;16.50;10.80;;;4.50;99.90;;;;;;6962367;28;20426;-62
2021/01/18 17:08:54;;;;;;;17.48;11.02;;;4.40;99.90;;;;;;6944126;28;20409;-64
2021/01/18 17:12:15;;;;;;;18.55;11.75;;;4.40;99.90;;;;;;6962780;28;20410;-64
2021/01/18 17:15:36;;;;;;;20.00;12.40;;;4.50;99.90;;;;;;6938601;28;20387;-59
2021/01/18 17:18:57;;;;;;;22.13;12.33;;;4.50;99.90;;;;;;6937813;28;20403;-63
2021/01/18 17:22:18;;;;;;;20.60;12.30;;;4.50;99.90;;;;;;6949304;28;20438;-62
2021/01/18 17:25:39;;;;;;;21.80;13.23;;;4.60;99.90;;;;;;6938273;28;20414;-63
2021/01/18 17:29:00;;;;;;;20.42;13.02;;;4.60;99.90;;;;;;6947902;28;20399;-64